Wetterdaten: aktuell Dienstag, 16.04.2024 10:00
Datum Zeit Temp. A. Temp. 2 Feuchte A. Luftdruck Regen Wind Richtung Richtung Sonnenschein Windben
16.04.2024 10:00 6,9 C 10,6 C 86 % 998,1 hPa 0,0 l/m 6,4 km/h (2 Bft) W 270 0 min 19,3 km/h (3 Bft)
16.04.2024 09:55 6,8 C 10,6 C 86 % 998,1 hPa 0,0 l/m 3,2 km/h (1 Bft) W-SW 247 0 min 9,7 km/h (2 Bft)
16.04.2024 09:50 6,8 C 9,4 C 86 % 998,0 hPa 0,0 l/m 4,8 km/h (1 Bft) W 270 0 min 14,5 km/h (3 Bft)
16.04.2024 09:45 6,8 C 9,4 C 86 % 997,9 hPa 0,0 l/m 6,4 km/h (2 Bft) W-SW 247 0 min 16,1 km/h (3 Bft)
16.04.2024 09:40 6,8 C 10,0 C 86 % 997,8 hPa 0,0 l/m 6,4 km/h (2 Bft) SW 225 0 min 19,3 km/h (3 Bft)
16.04.2024 09:35 6,9 C 10,0 C 86 % 997,8 hPa 0,0 l/m 8,0 km/h (2 Bft) W-SW 247 0 min 22,5 km/h (4 Bft)
16.04.2024 09:30 6,9 C 11,1 C 87 % 997,8 hPa 0,0 l/m 4,8 km/h (1 Bft) S-SW 202 0 min 17,7 km/h (3 Bft)
16.04.2024 09:25 6,7 C 10,6 C 87 % 997,7 hPa 0,0 l/m 6,4 km/h (2 Bft) W 270 0 min 17,7 km/h (3 Bft)
16.04.2024 09:20 6,5 C 9,4 C 88 % 997,6 hPa 0,0 l/m 8,0 km/h (2 Bft) SW 225 0 min 17,7 km/h (3 Bft)
16.04.2024 09:15 6,4 C 9,4 C 88 % 997,6 hPa 0,0 l/m 6,4 km/h (2 Bft) W-SW 247 0 min 16,1 km/h (3 Bft)
16.04.2024 09:10 6,3 C 8,9 C 89 % 997,6 hPa 0,0 l/m 4,8 km/h (1 Bft) SW 225 0 min 16,1 km/h (3 Bft)
16.04.2024 09:05 6,3 C 8,3 C 89 % 997,5 hPa 0,0 l/m 4,8 km/h (1 Bft) SW 225 0 min 14,5 km/h (3 Bft)
16.04.2024 09:00 6,1 C 8,3 C 89 % 997,4 hPa 0,0 l/m 4,8 km/h (1 Bft) S-SW 202 0 min 11,3 km/h (2 Bft)
16.04.2024 08:55 6,1 C 7,2 C 89 % 997,4 hPa 0,0 l/m 6,4 km/h (2 Bft) SW 225 0 min 12,9 km/h (3 Bft)
16.04.2024 08:50 6,0 C 7,2 C 89 % 997,3 hPa 0,0 l/m 6,4 km/h (2 Bft) S-SW 202 0 min 12,9 km/h (3 Bft)
16.04.2024 08:45 6,0 C 7,2 C 89 % 997,2 hPa 0,0 l/m 6,4 km/h (2 Bft) W-SW 247 0 min 16,1 km/h (3 Bft)
16.04.2024 08:40 6,0 C 7,8 C 90 % 997,3 hPa 0,0 l/m 4,8 km/h (1 Bft) SW 225 0 min 16,1 km/h (3 Bft)
16.04.2024 08:35 5,9 C 7,8 C 90 % 997,2 hPa 0,0 l/m 4,8 km/h (1 Bft) SW 225 0 min 11,3 km/h (2 Bft)
16.04.2024 08:30 5,8 C 7,2 C 90 % 997,1 hPa 0,0 l/m 4,8 km/h (1 Bft) SW 225 0 min 14,5 km/h (3 Bft)
16.04.2024 08:25 5,7 C 7,2 C 90 % 997,1 hPa 0,0 l/m 4,8 km/h (1 Bft) SW 225 0 min 16,1 km/h (3 Bft)
16.04.2024 08:20 5,6 C 6,7 C 90 % 997,2 hPa 0,0 l/m 4,8 km/h (1 Bft) S-SW 202 0 min 12,9 km/h (3 Bft)
16.04.2024 08:15 5,6 C 6,7 C 90 % 997,1 hPa 0,0 l/m 4,8 km/h (1 Bft) S-SW 202 0 min 9,7 km/h (2 Bft)
16.04.2024 08:10 5,4 C 6,1 C 90 % 997,0 hPa 0,0 l/m 3,2 km/h (1 Bft) SW 225 0 min 12,9 km/h (3 Bft)
16.04.2024 08:05 5,3 C 6,1 C 90 % 997,0 hPa 0,0 l/m 6,4 km/h (2 Bft) SW 225 0 min 17,7 km/h (3 Bft)
16.04.2024 08:00 5,2 C 5,6 C 90 % 997,0 hPa 0,0 l/m 4,8 km/h (1 Bft) S-SW 202 0 min 14,5 km/h (3 Bft)
16.04.2024 07:55 5,2 C 5,0 C 90 % 997,1 hPa 0,0 l/m 6,4 km/h (2 Bft) SW 225 0 min 19,3 km/h (3 Bft)
16.04.2024 07:50 5,2 C 5,6 C 90 % 997,1 hPa 0,0 l/m 4,8 km/h (1 Bft) SW 225 0 min 12,9 km/h (3 Bft)
16.04.2024 07:45 5,2 C 5,0 C 90 % 997,0 hPa 0,0 l/m 4,8 km/h (1 Bft) SW 225 0 min 16,1 km/h (3 Bft)
16.04.2024 07:40 5,2 C 5,0 C 91 % 997,0 hPa 0,0 l/m 6,4 km/h (2 Bft) S-SW 202 0 min 17,7 km/h (3 Bft)
16.04.2024 07:35 5,2 C 5,0 C 91 % 996,9 hPa 0,0 l/m 4,8 km/h (1 Bft) W-SW 247 0 min 17,7 km/h (3 Bft)
16.04.2024 07:30 5,1 C 5,0 C 91 % 996,8 hPa 0,0 l/m 6,4 km/h (2 Bft) SW 225 0 min 19,3 km/h (3 Bft)
16.04.2024 07:25 5,1 C 5,0 C 91 % 996,8 hPa 0,0 l/m 4,8 km/h (1 Bft) S-SW 202 0 min 14,5 km/h (3 Bft)
16.04.2024 07:20 5,1 C 4,4 C 91 % 996,8 hPa 0,0 l/m 9,7 km/h (2 Bft) SW 225 0 min 17,7 km/h (3 Bft)
16.04.2024 07:15 5,0 C 5,0 C 91 % 996,8 hPa 0,0 l/m 8,0 km/h (2 Bft) SW 225 0 min 25,7 km/h (4 Bft)
16.04.2024 07:10 4,9 C 4,4 C 91 % 996,7 hPa 0,0 l/m 8,0 km/h (2 Bft) SW 225 0 min 19,3 km/h (3 Bft)
16.04.2024 07:05 4,9 C 4,4 C 91 % 996,7 hPa 0,0 l/m 6,4 km/h (2 Bft) S-SW 202 0 min 16,1 km/h (3 Bft)
16.04.2024 07:00 4,8 C 4,4 C 91 % 996,7 hPa 0,0 l/m 4,8 km/h (1 Bft) SW 225 0 min 16,1 km/h (3 Bft)
16.04.2024 06:55 4,8 C 3,9 C 91 % 996,6 hPa 0,0 l/m 8,0 km/h (2 Bft) SW 225 0 min 17,7 km/h (3 Bft)
16.04.2024 06:50 4,8 C 3,9 C 91 % 996,5 hPa 0,0 l/m 9,7 km/h (2 Bft) SW 225 0 min 22,5 km/h (4 Bft)
16.04.2024 06:45 4,9 C 3,9 C 91 % 996,5 hPa 0,0 l/m 9,7 km/h (2 Bft) SW 225 0 min 24,1 km/h (4 Bft)
16.04.2024 06:40 4,9 C 3,9 C 91 % 996,4 hPa 0,0 l/m 8,0 km/h (2 Bft) S-SW 202 0 min 24,1 km/h (4 Bft)
16.04.2024 06:35 4,9 C 4,4 C 92 % 996,4 hPa 0,0 l/m 4,8 km/h (1 Bft) S-SW 202 0 min 12,9 km/h (3 Bft)
16.04.2024 06:30 4,8 C 4,4 C 92 % 996,4 hPa 0,0 l/m 9,7 km/h (2 Bft) SW 225 0 min 19,3 km/h (3 Bft)
16.04.2024 06:25 4,8 C 4,4 C 92 % 996,4 hPa 0,0 l/m 4,8 km/h (1 Bft) S-SW 202 0 min 14,5 km/h (3 Bft)
16.04.2024 06:20 4,8 C 4,4 C 92 % 996,3 hPa 0,0 l/m 6,4 km/h (2 Bft) S-SW 202 0 min 16,1 km/h (3 Bft)
16.04.2024 06:15 4,8 C 4,4 C 92 % 996,3 hPa 0,0 l/m 6,4 km/h (2 Bft) SW 225 0 min 16,1 km/h (3 Bft)
16.04.2024 06:10 4,8 C 4,4 C 92 % 996,3 hPa 0,0 l/m 6,4 km/h (2 Bft) SW 225 0 min 16,1 km/h (3 Bft)
16.04.2024 06:05 4,7 C 3,9 C 92 % 996,3 hPa 0,0 l/m 8,0 km/h (2 Bft) SW 225 0 min 19,3 km/h (3 Bft)
16.04.2024 06:00 4,7 C 3,9 C 92 % 996,2 hPa 0,0 l/m 6,4 km/h (2 Bft) S-SW 202 0 min 16,1 km/h (3 Bft)
16.04.2024 05:55 4,7 C 3,9 C 92 % 996,2 hPa 0,0 l/m 6,4 km/h (2 Bft) S-SW 202 0 min 12,9 km/h (3 Bft)
16.04.2024 05:50 4,7 C 3,9 C 92 % 996,2 hPa 0,0 l/m 4,8 km/h (1 Bft) S-SW 202 0 min 14,5 km/h (3 Bft)
16.04.2024 05:45 4,7 C 3,9 C 92 % 996,2 hPa 0,0 l/m 3,2 km/h (1 Bft) SW 225 0 min 11,3 km/h (2 Bft)
16.04.2024 05:40 4,6 C 3,9 C 92 % 996,2 hPa 0,0 l/m 4,8 km/h (1 Bft) S-SW 202 0 min 12,9 km/h (3 Bft)
16.04.2024 05:35 4,6 C 3,9 C 92 % 996,2 hPa 0,0 l/m 3,2 km/h (1 Bft) SW 225 0 min 11,3 km/h (2 Bft)
16.04.2024 05:30 4,6 C 3,3 C 92 % 996,1 hPa 0,0 l/m 4,8 km/h (1 Bft) S-SW 202 0 min 16,1 km/h (3 Bft)
16.04.2024 05:25 4,6 C 3,3 C 92 % 996,1 hPa 0,0 l/m 4,8 km/h (1 Bft) SW 225 0 min 11,3 km/h (2 Bft)
16.04.2024 05:20 4,6 C 3,3 C 92 % 996,0 hPa 0,0 l/m 4,8 km/h (1 Bft) S-SW 202 0 min 14,5 km/h (3 Bft)
16.04.2024 05:15 4,6 C 3,9 C 92 % 996,0 hPa 0,0 l/m 6,4 km/h (2 Bft) SW 225 0 min 14,5 km/h (3 Bft)
16.04.2024 05:10 4,6 C 3,9 C 92 % 996,0 hPa 0,0 l/m 4,8 km/h (1 Bft) S-SW 202 0 min 12,9 km/h (3 Bft)
16.04.2024 05:05 4,6 C 3,9 C 92 % 996,0 hPa 0,0 l/m 6,4 km/h (2 Bft) SW 225 0 min 16,1 km/h (3 Bft)
16.04.2024 05:00 4,6 C 3,9 C 92 % 996,0 hPa 0,0 l/m 8,0 km/h (2 Bft) SW 225 0 min 17,7 km/h (3 Bft)
16.04.2024 04:55 4,6 C 3,9 C 92 % 996,0 hPa 0,0 l/m 6,4 km/h (2 Bft) SW 225 0 min 16,1 km/h (3 Bft)
16.04.2024 04:50 4,5 C 3,9 C 92 % 996,0 hPa 0,0 l/m 6,4 km/h (2 Bft) SW 225 0 min 14,5 km/h (3 Bft)
16.04.2024 04:45 4,4 C 3,9 C 92 % 996,0 hPa 0,0 l/m 8,0 km/h (2 Bft) SW 225 0 min 19,3 km/h (3 Bft)
16.04.2024 04:40 4,3 C 3,9 C 92 % 996,0 hPa 0,0 l/m 9,7 km/h (2 Bft) SW 225 0 min 19,3 km/h (3 Bft)
16.04.2024 04:35 4,3 C 3,3 C 92 % 995,9 hPa 0,0 l/m 8,0 km/h (2 Bft) SW 225 0 min 19,3 km/h (3 Bft)
16.04.2024 04:30 4,3 C 2,8 C 92 % 995,9 hPa 0,0 l/m 8,0 km/h (2 Bft) SW 225 0 min 25,7 km/h (4 Bft)
16.04.2024 04:25 4,2 C 3,3 C 92 % 995,8 hPa 0,0 l/m 8,0 km/h (2 Bft) SW 225 0 min 19,3 km/h (3 Bft)
16.04.2024 04:20 4,2 C 3,3 C 92 % 995,9 hPa 0,0 l/m 9,7 km/h (2 Bft) S-SW 202 0 min 20,9 km/h (4 Bft)
16.04.2024 04:15 4,2 C 2,8 C 92 % 995,9 hPa 0,0 l/m 9,7 km/h (2 Bft) S-SW 202 0 min 20,9 km/h (4 Bft)
16.04.2024 04:10 4,2 C 2,8 C 92 % 995,9 hPa 0,0 l/m 9,7 km/h (2 Bft) SW 225 0 min 17,7 km/h (3 Bft)
16.04.2024 04:05 4,2 C 2,2 C 92 % 996,0 hPa 0,0 l/m 6,4 km/h (2 Bft) SW 225 0 min 17,7 km/h (3 Bft)
16.04.2024 04:00 4,3 C 2,8 C 92 % 995,9 hPa 0,0 l/m 6,4 km/h (2 Bft) SW 225 0 min 16,1 km/h (3 Bft)
16.04.2024 03:55 4,3 C 2,8 C 92 % 996,0 hPa 0,0 l/m 6,4 km/h (2 Bft) SW 225 0 min 16,1 km/h (3 Bft)
16.04.2024 03:50 4,3 C 3,3 C 92 % 996,0 hPa 0,0 l/m 6,4 km/h (2 Bft) SW 225 0 min 17,7 km/h (3 Bft)
16.04.2024 03:45 4,3 C 3,3 C 92 % 996,1 hPa 0,0 l/m 8,0 km/h (2 Bft) SW 225 0 min 19,3 km/h (3 Bft)
16.04.2024 03:40 4,3 C 3,3 C 92 % 996,0 hPa 0,0 l/m 6,4 km/h (2 Bft) SW 225 0 min 14,5 km/h (3 Bft)
16.04.2024 03:35 4,3 C 2,8 C 92 % 996,0 hPa 0,0 l/m 9,7 km/h (2 Bft) SW 225 0 min 29,0 km/h (5 Bft)
16.04.2024 03:30 4,3 C 3,3 C 92 % 996,1 hPa 0,0 l/m 6,4 km/h (2 Bft) SW 225 0 min 19,3 km/h (3 Bft)
16.04.2024 03:25 4,2 C 3,3 C 92 % 996,1 hPa 0,0 l/m 8,0 km/h (2 Bft) SW 225 0 min 17,7 km/h (3 Bft)
16.04.2024 03:20 4,3 C 2,8 C 92 % 996,1 hPa 0,0 l/m 8,0 km/h (2 Bft) SW 225 0 min 17,7 km/h (3 Bft)
16.04.2024 03:15 4,3 C 2,8 C 92 % 996,1 hPa 0,0 l/m 6,4 km/h (2 Bft) SW 225 0 min 14,5 km/h (3 Bft)
16.04.2024 03:10 4,3 C 2,8 C 92 % 996,1 hPa 0,0 l/m 8,0 km/h (2 Bft) SW 225 0 min 16,1 km/h (3 Bft)
16.04.2024 03:05 4,4 C 3,3 C 92 % 996,2 hPa 0,0 l/m 6,4 km/h (2 Bft) SW 225 0 min 19,3 km/h (3 Bft)
16.04.2024 03:00 4,4 C 3,3 C 92 % 996,2 hPa 0,0 l/m 11,3 km/h (2 Bft) SW 225 0 min 27,4 km/h (4 Bft)
16.04.2024 02:55 4,4 C 3,3 C 92 % 996,3 hPa 0,0 l/m 9,7 km/h (2 Bft) SW 225 0 min 25,7 km/h (4 Bft)
16.04.2024 02:50 4,5 C 3,3 C 92 % 996,2 hPa 0,0 l/m 8,0 km/h (2 Bft) SW 225 0 min 22,5 km/h (4 Bft)
16.04.2024 02:45 4,6 C 3,3 C 92 % 996,2 hPa 0,0 l/m 6,4 km/h (2 Bft) SW 225 0 min 16,1 km/h (3 Bft)
16.04.2024 02:40 4,6 C 3,3 C 92 % 996,2 hPa 0,0 l/m 8,0 km/h (2 Bft) SW 225 0 min 16,1 km/h (3 Bft)
16.04.2024 02:35 4,6 C 3,3 C 92 % 996,3 hPa 0,0 l/m 9,7 km/h (2 Bft) SW 225 0 min 22,5 km/h (4 Bft)
16.04.2024 02:30 4,5 C 3,9 C 92 % 996,2 hPa 0,0 l/m 9,7 km/h (2 Bft) SW 225 0 min 25,7 km/h (4 Bft)
16.04.2024 02:25 4,5 C 3,9 C 92 % 996,3 hPa 0,0 l/m 9,7 km/h (2 Bft) SW 225 0 min 20,9 km/h (4 Bft)
16.04.2024 02:20 4,5 C 3,3 C 92 % 996,3 hPa 0,0 l/m 11,3 km/h (2 Bft) SW 225 0 min 27,4 km/h (4 Bft)
16.04.2024 02:15 4,5 C 3,3 C 92 % 996,4 hPa 0,0 l/m 8,0 km/h (2 Bft) SW 225 0 min 17,7 km/h (3 Bft)
16.04.2024 02:10 4,4 C 3,9 C 92 % 996,4 hPa 0,0 l/m 8,0 km/h (2 Bft) SW 225 0 min 19,3 km/h (3 Bft)
16.04.2024 02:05 4,4 C 3,3 C 92 % 996,5 hPa 0,0 l/m 9,7 km/h (2 Bft) SW 225 0 min 22,5 km/h (4 Bft)
16.04.2024 02:00 4,4 C 3,3 C 92 % 996,5 hPa 0,0 l/m 6,4 km/h (2 Bft) SW 225 0 min 17,7 km/h (3 Bft)
16.04.2024 01:55 4,4 C 3,3 C 92 % 996,4 hPa 0,0 l/m 3,2 km/h (1 Bft) SW 225 0 min 11,3 km/h (2 Bft)
16.04.2024 01:50 4,4 C 2,8 C 92 % 996,4 hPa 0,0 l/m 8,0 km/h (2 Bft) SW 225 0 min 22,5 km/h (4 Bft)
16.04.2024 01:45 4,4 C 2,8 C 92 % 996,4 hPa 0,0 l/m 6,4 km/h (2 Bft) SW 225 0 min 16,1 km/h (3 Bft)
16.04.2024 01:40 4,4 C 2,8 C 92 % 996,4 hPa 0,0 l/m 8,0 km/h (2 Bft) SW 225 0 min 17,7 km/h (3 Bft)
16.04.2024 01:35 4,5 C 3,3 C 92 % 996,6 hPa 0,0 l/m 6,4 km/h (2 Bft) W-SW 247 0 min 17,7 km/h (3 Bft)
16.04.2024 01:30 4,5 C 3,3 C 91 % 996,6 hPa 0,0 l/m 3,2 km/h (1 Bft) SW 225 0 min 12,9 km/h (3 Bft)
16.04.2024 01:25 4,5 C 3,3 C 92 % 996,6 hPa 0,0 l/m 6,4 km/h (2 Bft) SW 225 0 min 14,5 km/h (3 Bft)
16.04.2024 01:20 4,4 C 3,3 C 91 % 996,6 hPa 0,0 l/m 8,0 km/h (2 Bft) SW 225 0 min 20,9 km/h (4 Bft)
16.04.2024 01:15 4,4 C 3,3 C 92 % 996,6 hPa 0,0 l/m 6,4 km/h (2 Bft) S-SW 202 0 min 17,7 km/h (3 Bft)
16.04.2024 01:10 4,4 C 3,3 C 92 % 996,6 hPa 0,0 l/m 8,0 km/h (2 Bft) SW 225 0 min 24,1 km/h (4 Bft)
16.04.2024 01:05 4,4 C 3,3 C 92 % 996,5 hPa 0,0 l/m 8,0 km/h (2 Bft) S-SW 202 0 min 19,3 km/h (3 Bft)
16.04.2024 01:00 4,4 C 3,3 C 92 % 996,4 hPa 0,0 l/m 9,7 km/h (2 Bft) SW 225 0 min 16,1 km/h (3 Bft)
16.04.2024 00:55 4,4 C 3,3 C 92 % 996,4 hPa 0,0 l/m 9,7 km/h (2 Bft) SW 225 0 min 19,3 km/h (3 Bft)
16.04.2024 00:50 4,4 C 3,3 C 92 % 996,3 hPa 0,0 l/m 9,7 km/h (2 Bft) SW 225 0 min 22,5 km/h (4 Bft)
16.04.2024 00:45 4,5 C 3,3 C 92 % 996,3 hPa 0,0 l/m 9,7 km/h (2 Bft) SW 225 0 min 20,9 km/h (4 Bft)
16.04.2024 00:40 4,6 C 3,3 C 92 % 996,2 hPa 0,0 l/m 8,0 km/h (2 Bft) SW 225 0 min 22,5 km/h (4 Bft)
16.04.2024 00:35 4,6 C 3,3 C 92 % 996,2 hPa 0,0 l/m 8,0 km/h (2 Bft) SW 225 0 min 19,3 km/h (3 Bft)
16.04.2024 00:30 4,7 C 3,3 C 92 % 996,2 hPa 0,0 l/m 8,0 km/h (2 Bft) SW 225 0 min 19,3 km/h (3 Bft)
16.04.2024 00:25 4,7 C 3,3 C 92 % 996,2 hPa 0,0 l/m 6,4 km/h (2 Bft) SW 225 0 min 19,3 km/h (3 Bft)
16.04.2024 00:20 4,8 C 3,3 C 92 % 996,1 hPa 0,0 l/m 8,0 km/h (2 Bft) SW 225 0 min 16,1 km/h (3 Bft)
16.04.2024 00:15 4,9 C 3,9 C 92 % 996,1 hPa 0,0 l/m 8,0 km/h (2 Bft) SW 225 0 min 22,5 km/h (4 Bft)
16.04.2024 00:10 4,9 C 3,9 C 93 % 996,1 hPa 0,0 l/m 9,7 km/h (2 Bft) SW 225 0 min 27,4 km/h (4 Bft)
16.04.2024 00:05 5,0 C 3,9 C 92 % 996,1 hPa 0,0 l/m 8,0 km/h (2 Bft) SW 225 0 min 22,5 km/h (4 Bft)
16.04.2024 00:00 5,1 C 3,9 C 92 % 996,1 hPa 0,0 l/m 8,0 km/h (2 Bft) SW 225 0 min 16,1 km/h (3 Bft)
_ Min-Zeit 04:10 04:05 09:35 04:25 - 01:30 - - - 08:15
Minimum _ 4,1 C 2,2 C 86 % 995,8 hPa - 3,2 km/h (1 Bft) - - - 9,7 km/h (2 Bft)
_ Max-Zeit 10:00 09:30 00:10 09:55 00:00 02:20 - - 00:00 03:35
Maximum _ 7,0 C 11,1 C 93 % 998,1 hPa 0,0 l/m 11,3 km/h
SW (2 Bft)
- - 0 min 29,0 km/h
SW (5 Bft)
Durchschnitt _ 4,9 C 4,6 C 91 % 996,5 hPa #0,0 l/m 6,9 km/h (2 Bft) SW - #0 min. 17,7 km/h (3 Bft)